Time;durP1;ratioP1;P1;durP2;ratioP2;P2;SDS_P1;SDS_P2;PMS_P1;PMS_P2;Temp;Humidity;BMP_temperature;BMP_pressure;BME280_temperature;BME280_humidity;BME280_pressure;Samples;Min_cycle;Max_cycle;Signal;HPM_P1;HPM_P2
2022/04/19 00:00:44;;;;;;;9.07;5.18;;;7.10;99.90;;;;;;4936197;28;20046;-76
2022/04/19 00:03:17;;;;;;;10.57;5.80;;;7.10;99.90;;;;;;4935910;28;20068;-76
2022/04/19 00:05:43;;;;;;;9.63;5.53;;;7.00;99.90;;;;;;4938679;28;20043;-76
2022/04/19 00:08:10;;;;;;;9.18;5.50;;;7.00;99.90;;;;;;4953732;28;20384;-76
2022/04/19 00:10:36;;;;;;;9.30;5.28;;;7.30;99.90;;;;;;4933650;28;20471;-77
2022/04/19 00:13:05;;;;;;;10.30;5.55;;;7.50;99.90;;;;;;4970979;28;20078;-76
2022/04/19 00:15:32;;;;;;;12.23;6.13;;;6.90;99.90;;;;;;4939470;28;20094;-76
2022/04/19 00:18:03;;;;;;;10.95;5.72;;;6.90;99.90;;;;;;4939436;28;20089;-76
2022/04/19 00:20:29;;;;;;;12.98;6.28;;;6.90;99.90;;;;;;4977920;28;20034;-76
2022/04/19 00:22:57;;;;;;;13.65;6.45;;;6.80;99.90;;;;;;4977807;28;20030;-76
2022/04/19 00:25:23;;;;;;;10.63;5.82;;;6.80;99.90;;;;;;4975213;28;20089;-76
2022/04/19 00:27:50;;;;;;;10.55;6.20;;;6.80;99.90;;;;;;4952723;28;20412;-77
2022/04/19 00:30:15;;;;;;;8.98;5.68;;;6.80;99.90;;;;;;4937990;28;20041;-76
2022/04/19 00:32:42;;;;;;;12.77;5.88;;;6.90;99.90;;;;;;4953907;28;20043;-76
2022/04/19 00:35:10;;;;;;;12.07;6.35;;;6.80;99.90;;;;;;4951316;28;20089;-76
2022/04/19 00:37:37;;;;;;;10.38;5.07;;;6.80;99.90;;;;;;4969569;28;20043;-76
2022/04/19 00:40:05;;;;;;;10.77;5.97;;;6.80;99.90;;;;;;4982960;28;20510;-76
2022/04/19 00:42:32;;;;;;;12.32;6.05;;;6.70;99.90;;;;;;4954479;28;20078;-77
2022/04/19 00:44:59;;;;;;;11.68;6.03;;;6.70;99.90;;;;;;4973649;28;20049;-76
2022/04/19 00:47:26;;;;;;;12.55;6.80;;;6.60;99.90;;;;;;4960664;28;20105;-76
2022/04/19 00:49:52;;;;;;;11.95;6.18;;;6.60;99.90;;;;;;4968089;28;20039;-76
2022/04/19 00:52:19;;;;;;;12.93;6.15;;;6.60;99.90;;;;;;4968382;28;20125;-76
2022/04/19 00:54:47;;;;;;;11.05;6.05;;;6.50;99.90;;;;;;4969134;28;20053;-76
2022/04/19 00:57:16;;;;;;;10.90;5.85;;;6.50;99.90;;;;;;4935541;28;20042;-77
2022/04/19 00:59:47;;;;;;;11.55;6.28;;;6.50;99.90;;;;;;4953791;28;20045;-76
2022/04/19 01:02:13;;;;;;;10.57;6.03;;;6.40;99.90;;;;;;4950533;28;20050;-75
2022/04/19 01:04:38;;;;;;;9.90;5.90;;;6.40;99.90;;;;;;4972757;28;20415;-75
2022/04/19 01:07:04;;;;;;;12.35;6.70;;;6.40;99.90;;;;;;4968033;28;20058;-75
2022/04/19 01:09:31;;;;;;;10.57;6.15;;;6.30;99.90;;;;;;4953573;28;20510;-76
2022/04/19 01:14:48;;;;;;;12.43;6.35;;;6.30;99.90;;;;;;4975406;28;20112;-76
2022/04/19 01:17:17;;;;;;;10.18;5.60;;;6.20;99.90;;;;;;4971074;28;20039;-76
2022/04/19 01:19:43;;;;;;;12.52;6.30;;;6.30;99.90;;;;;;4969250;28;20042;-76
2022/04/19 01:22:13;;;;;;;12.57;6.15;;;6.20;99.90;;;;;;4950788;28;20200;-77
2022/04/19 01:24:39;;;;;;;11.60;6.38;;;6.20;99.90;;;;;;4935753;28;20440;-76
2022/04/19 01:27:05;;;;;;;12.45;6.40;;;6.10;99.90;;;;;;4951474;28;20069;-76
2022/04/19 01:29:33;;;;;;;12.15;6.10;;;6.10;99.90;;;;;;4954102;28;20054;-76
2022/04/19 01:32:04;;;;;;;13.50;6.80;;;6.10;99.90;;;;;;4950549;28;20126;-76
2022/04/19 01:34:30;;;;;;;11.93;6.78;;;6.10;99.90;;;;;;4950306;28;20070;-77
2022/04/19 01:36:56;;;;;;;12.90;6.78;;;6.00;99.90;;;;;;4983293;28;20336;-76
2022/04/19 01:40:16;;;;;;;11.65;6.47;;;6.00;99.90;;;;;;4932814;28;20035;-76
2022/04/19 01:42:08;;;;;;;11.85;7.10;;;6.00;99.90;;;;;;4962632;28;20135;-76
2022/04/19 01:44:34;;;;;;;16.05;7.18;;;5.90;99.90;;;;;;4953184;28;20051;-76
2022/04/19 01:47:01;;;;;;;12.07;6.45;;;6.10;99.90;;;;;;4935268;28;20057;-76
2022/04/19 01:49:27;;;;;;;13.15;6.53;;;5.90;99.90;;;;;;4949880;28;20441;-76
2022/04/19 01:51:53;;;;;;;12.23;7.13;;;5.90;99.90;;;;;;4934902;28;20408;-76
2022/04/19 01:54:18;;;;;;;13.10;6.53;;;5.80;99.90;;;;;;4949491;28;20042;-76
2022/04/19 01:56:48;;;;;;;13.80;7.03;;;5.80;99.90;;;;;;4933885;28;20448;-76
2022/04/19 01:59:13;;;;;;;13.00;7.15;;;5.80;99.90;;;;;;4950497;28;20043;-76
2022/04/19 02:01:39;;;;;;;13.10;6.82;;;5.80;99.90;;;;;;4949863;28;20053;-76
2022/04/19 02:04:05;;;;;;;13.05;6.68;;;5.80;99.90;;;;;;4983568;28;20476;-76
2022/04/19 02:06:31;;;;;;;12.55;6.38;;;5.80;99.90;;;;;;4939957;29;20058;-76
2022/04/19 02:09:00;;;;;;;14.60;6.70;;;5.80;99.90;;;;;;4953052;28;20047;-76
2022/04/19 02:11:25;;;;;;;11.00;6.50;;;5.80;99.90;;;;;;4969595;28;20101;-76
2022/04/19 02:13:51;;;;;;;13.68;7.32;;;6.30;99.90;;;;;;4969804;28;20542;-76
2022/04/19 02:16:17;;;;;;;13.10;7.25;;;5.70;99.90;;;;;;4953101;28;20616;-76
2022/04/19 02:18:43;;;;;;;13.07;7.10;;;5.70;99.90;;;;;;4962417;28;20069;-76
2022/04/19 02:21:09;;;;;;;12.80;7.43;;;5.60;99.90;;;;;;4953683;28;20459;-76
2022/04/19 02:23:35;;;;;;;10.32;6.43;;;5.60;99.90;;;;;;4952769;28;20100;-76
2022/04/19 02:26:02;;;;;;;12.95;7.05;;;5.50;99.90;;;;;;4985238;28;20043;-76
2022/04/19 02:28:28;;;;;;;13.25;7.40;;;5.50;99.90;;;;;;4953398;28;20043;-76
2022/04/19 02:30:54;;;;;;;14.45;6.93;;;5.50;99.90;;;;;;4955958;28;20039;-76
2022/04/19 02:33:20;;;;;;;14.48;7.72;;;5.40;99.90;;;;;;4952280;28;20052;-76
2022/04/19 02:35:45;;;;;;;17.15;7.68;;;5.40;99.90;;;;;;4971323;28;20508;-76
2022/04/19 02:38:11;;;;;;;13.05;6.93;;;5.40;99.90;;;;;;4970480;28;20046;-76
2022/04/19 02:40:37;;;;;;;12.80;7.13;;;5.30;99.90;;;;;;4952905;28;20117;-76
2022/04/19 02:43:03;;;;;;;15.30;7.45;;;5.30;99.90;;;;;;4954359;28;20503;-77
2022/04/19 02:45:28;;;;;;;12.85;7.43;;;5.30;99.90;;;;;;4970241;28;20050;-76
2022/04/19 02:48:04;;;;;;;14.50;8.68;;;5.20;99.90;;;;;;4969419;28;20062;-76
2022/04/19 02:50:34;;;;;;;14.63;7.82;;;5.20;99.90;;;;;;4953363;28;20051;-76
2022/04/19 02:53:02;;;;;;;15.20;7.85;;;5.10;99.90;;;;;;4953345;28;20043;-77
2022/04/19 02:55:27;;;;;;;16.27;7.35;;;5.10;99.90;;;;;;4971074;28;20066;-77
2022/04/19 02:57:53;;;;;;;14.20;8.48;;;5.10;99.90;;;;;;4951184;28;20050;-76
2022/04/19 03:00:20;;;;;;;17.17;7.80;;;5.10;99.90;;;;;;4967088;28;20479;-76
2022/04/19 03:02:46;;;;;;;14.13;8.15;;;5.10;99.90;;;;;;4936059;28;20403;-77
2022/04/19 03:05:13;;;;;;;14.60;8.32;;;5.10;99.90;;;;;;4937185;28;20133;-78
2022/04/19 03:07:39;;;;;;;14.25;7.50;;;5.10;99.90;;;;;;4950897;29;20151;-77
2022/04/19 03:10:06;;;;;;;13.27;7.72;;;5.00;99.90;;;;;;4948468;28;20080;-76
2022/04/19 03:12:32;;;;;;;14.75;7.70;;;5.00;99.90;;;;;;4968781;28;20078;-76
2022/04/19 03:14:58;;;;;;;16.33;7.82;;;5.00;99.90;;;;;;4969141;28;20597;-76
2022/04/19 03:17:23;;;;;;;14.30;8.05;;;5.00;99.90;;;;;;4952840;28;20078;-76
2022/04/19 03:19:49;;;;;;;15.60;8.10;;;5.00;99.90;;;;;;4952333;28;20045;-76
2022/04/19 03:22:18;;;;;;;15.20;8.48;;;5.00;99.90;;;;;;4970701;28;20446;-76
2022/04/19 03:27:43;;;;;;;16.13;7.80;;;4.90;99.90;;;;;;4949482;29;20051;-77
2022/04/19 03:30:15;;;;;;;15.80;8.82;;;4.90;99.90;;;;;;4951050;28;20042;-76
2022/04/19 03:32:42;;;;;;;14.48;8.32;;;4.90;99.90;;;;;;4970682;28;20038;-76
2022/04/19 03:35:08;;;;;;;14.07;7.70;;;4.90;99.90;;;;;;4949989;29;20051;-76
2022/04/19 03:37:34;;;;;;;13.73;7.65;;;4.90;99.90;;;;;;4953039;28;20463;-76
2022/04/19 03:40:00;;;;;;;15.60;7.63;;;4.90;99.90;;;;;;4969125;28;20039;-76
2022/04/19 03:42:26;;;;;;;14.45;8.05;;;4.90;99.90;;;;;;4968464;28;20425;-76
2022/04/19 03:44:52;;;;;;;14.63;7.38;;;4.90;99.90;;;;;;4937549;28;20047;-76
2022/04/19 03:47:18;;;;;;;15.25;7.45;;;4.90;99.90;;;;;;4936617;28;20078;-76
2022/04/19 03:49:44;;;;;;;17.55;7.97;;;4.90;99.90;;;;;;4970324;28;20660;-76
2022/04/19 03:52:12;;;;;;;14.05;8.23;;;4.90;99.90;;;;;;4983381;28;20050;-76
2022/04/19 03:54:38;;;;;;;14.25;8.50;;;5.00;99.90;;;;;;4968166;28;20110;-77
2022/04/19 03:57:07;;;;;;;16.42;8.02;;;5.00;99.90;;;;;;4951838;28;20050;-76
2022/04/19 03:59:33;;;;;;;15.43;8.60;;;5.00;99.90;;;;;;4969044;28;20050;-76
2022/04/19 04:01:59;;;;;;;16.38;8.38;;;5.00;99.90;;;;;;4969103;28;20093;-76
2022/04/19 04:04:31;;;;;;;12.32;7.28;;;5.00;99.90;;;;;;4951146;28;20496;-76
2022/04/19 04:07:00;;;;;;;15.10;7.88;;;5.00;99.90;;;;;;4965912;28;20042;-76
2022/04/19 04:09:32;;;;;;;16.90;8.13;;;5.50;99.90;;;;;;4959078;28;20133;-76
2022/04/19 04:12:03;;;;;;;15.65;8.00;;;5.10;99.90;;;;;;4958434;28;20113;-76
2022/04/19 04:14:32;;;;;;;14.73;7.80;;;5.10;99.90;;;;;;4950617;28;20137;-76
2022/04/19 04:16:58;;;;;;;15.10;7.55;;;5.20;99.90;;;;;;4973079;28;20042;-76
2022/04/19 04:19:24;;;;;;;16.48;8.45;;;5.20;99.90;;;;;;4951294;28;20154;-76
2022/04/19 04:21:50;;;;;;;14.55;8.32;;;5.20;99.90;;;;;;4948072;29;20134;-75
2022/04/19 04:24:16;;;;;;;12.70;7.13;;;5.20;99.90;;;;;;4946409;28;20061;-76
2022/04/19 04:26:42;;;;;;;13.90;7.65;;;5.40;99.90;;;;;;4968428;28;20050;-76
2022/04/19 04:29:07;;;;;;;13.93;7.82;;;5.30;99.90;;;;;;4950877;28;20494;-76
2022/04/19 04:31:33;;;;;;;15.15;8.38;;;5.30;99.90;;;;;;4933211;28;20672;-76
2022/04/19 04:33:59;;;;;;;14.68;7.78;;;5.90;99.90;;;;;;4944137;28;20563;-76
2022/04/19 04:36:25;;;;;;;16.10;7.65;;;5.30;99.90;;;;;;4960100;28;20047;-76
2022/04/19 04:38:51;;;;;;;14.55;7.82;;;5.70;99.90;;;;;;4968940;28;20122;-76
2022/04/19 04:41:17;;;;;;;14.95;7.20;;;5.30;99.90;;;;;;4967661;28;20659;-76
2022/04/19 04:43:43;;;;;;;15.38;7.43;;;5.30;99.90;;;;;;4968182;28;20535;-76
2022/04/19 04:51:37;;;;;;;14.05;7.88;;;5.40;99.90;;;;;;4942751;28;20637;-76
2022/04/19 04:54:03;;;;;;;14.38;8.10;;;5.40;99.90;;;;;;4933869;28;20184;-77
2022/04/19 04:56:28;;;;;;;15.98;7.97;;;5.50;99.90;;;;;;4964522;28;20047;-76
2022/04/19 04:58:54;;;;;;;18.65;9.05;;;5.50;99.90;;;;;;4950192;28;20505;-76
2022/04/19 05:01:20;;;;;;;13.27;7.15;;;5.60;99.90;;;;;;4947349;28;20035;-76
2022/04/19 05:03:46;;;;;;;15.63;8.30;;;5.60;99.90;;;;;;4936042;28;20488;-76
2022/04/19 05:06:12;;;;;;;15.35;8.52;;;5.60;99.90;;;;;;4950216;28;20030;-77
2022/04/19 05:08:38;;;;;;;14.75;8.13;;;5.70;99.90;;;;;;4959557;28;20047;-76
2022/04/19 05:11:03;;;;;;;14.45;7.95;;;6.10;99.90;;;;;;4958568;28;20042;-76
2022/04/19 05:13:29;;;;;;;15.07;7.60;;;5.90;99.90;;;;;;4949076;28;20042;-76
2022/04/19 05:15:58;;;;;;;13.10;7.32;;;6.10;99.90;;;;;;4944686;28;20047;-76
2022/04/19 05:18:24;;;;;;;14.65;7.70;;;6.60;99.90;;;;;;4952284;28;20395;-75
2022/04/19 05:20:50;;;;;;;14.18;7.50;;;7.30;99.90;;;;;;4966992;28;20042;-76
2022/04/19 05:23:15;;;;;;;12.98;7.55;;;8.20;99.90;;;;;;4947493;28;20043;-76
2022/04/19 05:25:41;;;;;;;13.73;7.03;;;9.50;99.90;;;;;;4977413;28;20679;-76
2022/04/19 05:28:07;;;;;;;12.52;6.70;;;10.80;99.90;;;;;;4962374;28;20161;-76
2022/04/19 05:30:33;;;;;;;15.10;6.57;;;11.80;99.90;;;;;;4959047;28;20043;-76
2022/04/19 05:32:58;;;;;;;13.07;6.35;;;12.70;99.90;;;;;;4947124;28;20038;-77
2022/04/19 05:35:24;;;;;;;11.98;6.15;;;13.40;99.90;;;;;;4935572;28;20404;-76
2022/04/19 05:37:50;;;;;;;11.00;5.70;;;13.80;99.90;;;;;;4955892;28;20055;-75
2022/04/19 05:40:15;;;;;;;15.50;6.60;;;13.60;99.90;;;;;;4941460;28;20166;-76
2022/04/19 05:42:41;;;;;;;13.18;6.22;;;12.80;99.90;;;;;;4943697;28;20393;-76
2022/04/19 05:45:07;;;;;;;14.13;6.47;;;12.30;99.90;;;;;;4931553;28;20062;-76
2022/04/19 05:47:33;;;;;;;12.13;6.35;;;11.80;99.90;;;;;;4929898;28;20751;-86
2022/04/19 05:49:59;;;;;;;13.32;6.60;;;11.50;99.90;;;;;;4958712;28;20059;-85
2022/04/19 05:52:24;;;;;;;14.48;7.38;;;11.20;99.90;;;;;;4931779;28;20042;-85
2022/04/19 05:54:51;;;;;;;14.10;6.82;;;11.70;99.90;;;;;;4932446;28;20050;-85
2022/04/19 05:57:17;;;;;;;14.52;6.97;;;11.90;99.90;;;;;;4927968;28;20054;-76
2022/04/19 05:59:42;;;;;;;14.07;7.43;;;11.60;99.90;;;;;;4954556;28;20550;-76
2022/04/19 06:04:52;;;;;;;13.45;7.22;;;10.80;99.90;;;;;;4952532;28;20046;-76
2022/04/19 06:07:22;;;;;;;14.50;6.82;;;10.30;99.90;;;;;;4934965;28;20058;-76
2022/04/19 06:09:48;;;;;;;13.75;6.82;;;10.20;99.90;;;;;;4956761;28;20548;-76
2022/04/19 06:12:14;;;;;;;14.57;7.40;;;10.50;99.90;;;;;;4969945;28;20078;-76
2022/04/19 06:14:39;;;;;;;14.00;7.28;;;10.30;99.90;;;;;;4982406;28;20046;-75
2022/04/19 06:17:05;;;;;;;12.73;6.85;;;10.20;99.90;;;;;;4955111;28;20023;-76
2022/04/19 06:19:32;;;;;;;14.70;7.75;;;10.30;99.90;;;;;;4945665;28;20591;-76
2022/04/19 06:21:58;;;;;;;18.40;8.32;;;10.60;99.90;;;;;;4953784;28;20448;-76
2022/04/19 06:24:24;;;;;;;15.38;8.02;;;10.90;99.90;;;;;;4985161;28;20101;-76
2022/04/19 06:26:50;;;;;;;15.45;8.43;;;10.80;99.90;;;;;;4958922;28;20491;-75
2022/04/19 06:29:16;;;;;;;13.60;7.70;;;10.80;99.90;;;;;;4953892;28;20078;-76
2022/04/19 06:31:45;;;;;;;21.83;7.55;;;11.50;99.90;;;;;;4954141;28;20073;-76
2022/04/19 06:34:11;;;;;;;14.30;7.22;;;13.10;99.90;;;;;;4964839;28;20181;-76
2022/04/19 06:36:37;;;;;;;14.80;7.35;;;14.30;99.90;;;;;;4936821;28;20074;-76
2022/04/19 06:39:03;;;;;;;15.73;7.85;;;15.20;99.90;;;;;;4982104;28;20391;-76
2022/04/19 06:41:29;;;;;;;14.32;7.55;;;16.00;99.90;;;;;;4954345;28;20109;-76
2022/04/19 06:43:58;;;;;;;14.52;7.07;;;16.10;99.90;;;;;;4961724;28;20094;-75
2022/04/19 06:46:26;;;;;;;15.52;7.55;;;16.30;99.90;;;;;;4974993;28;20126;-76
2022/04/19 06:48:59;;;;;;;14.60;7.45;;;16.00;99.90;;;;;;4979693;28;20041;-75
2022/04/19 06:51:25;;;;;;;13.73;6.70;;;15.80;99.90;;;;;;4955236;28;20042;-75
2022/04/19 06:53:51;;;;;;;15.90;6.53;;;15.50;99.90;;;;;;4971980;28;20042;-75
2022/04/19 06:56:17;;;;;;;20.27;6.80;;;15.60;99.90;;;;;;4955689;28;20054;-75
2022/04/19 06:58:44;;;;;;;14.90;7.50;;;16.20;99.90;;;;;;4955802;28;20046;-75
2022/04/19 07:01:10;;;;;;;12.50;6.88;;;16.40;99.90;;;;;;4972246;28;20050;-75
2022/04/19 07:03:37;;;;;;;14.00;6.70;;;16.40;99.90;;;;;;4938963;28;20561;-82
2022/04/19 07:06:04;;;;;;;13.35;6.40;;;16.50;99.90;;;;;;4971820;28;20393;-84
2022/04/19 07:08:30;;;;;;;15.38;7.15;;;16.70;99.90;;;;;;4937905;28;20053;-84
2022/04/19 07:10:56;;;;;;;16.20;7.78;;;18.00;99.50;;;;;;4951025;29;20052;-84
2022/04/19 07:13:23;;;;;;;13.60;7.15;;;17.90;98.30;;;;;;4950364;29;20110;-83
2022/04/19 07:15:50;;;;;;;12.57;6.75;;;18.40;96.20;;;;;;4934303;29;20039;-82
2022/04/19 07:18:17;;;;;;;12.82;6.82;;;19.40;94.60;;;;;;4934475;29;20107;-86
2022/04/19 07:28:56;;;;;;;14.40;6.68;;;16.80;94.60;;;;;;4950657;29;20460;-82
2022/04/19 07:31:21;;;;;;;12.52;6.05;;;16.20;95.40;;;;;;4950886;29;20047;-82
2022/04/19 07:33:47;;;;;;;12.77;5.38;;;15.90;95.70;;;;;;4950850;29;20074;-83
2022/04/19 07:36:13;;;;;;;10.77;5.70;;;15.70;96.20;;;;;;4935356;29;20048;-84
2022/04/19 07:38:39;;;;;;;14.88;5.65;;;15.80;97.20;;;;;;4952573;29;20070;-83
2022/04/19 07:41:04;;;;;;;10.88;5.10;;;15.50;96.80;;;;;;4951392;29;20189;-78
2022/04/19 07:43:30;;;;;;;14.35;5.70;;;15.80;97.60;;;;;;4950629;29;20517;-81
2022/04/19 07:45:56;;;;;;;10.63;4.47;;;15.60;98.40;;;;;;4951201;29;20043;-80
2022/04/19 07:48:22;;;;;;;11.48;5.32;;;15.90;99.00;;;;;;4956487;28;20066;-80
2022/04/19 07:50:48;;;;;;;14.88;5.20;;;15.90;97.50;;;;;;4946730;29;20039;-80
2022/04/19 07:53:13;;;;;;;10.45;5.32;;;16.00;97.30;;;;;;4950112;28;20048;-77
2022/04/19 07:55:39;;;;;;;10.75;5.40;;;16.00;97.90;;;;;;4934564;29;20055;-79
2022/04/19 07:58:05;;;;;;;10.50;5.70;;;16.10;97.20;;;;;;4950478;29;20259;-79
2022/04/19 08:00:31;;;;;;;11.75;5.65;;;16.30;97.40;;;;;;4966486;28;20150;-79
2022/04/19 08:02:57;;;;;;;13.50;5.90;;;16.50;97.70;;;;;;4949685;28;20054;-79
2022/04/19 08:05:24;;;;;;;11.02;5.10;;;16.50;96.50;;;;;;4949253;29;20051;-80
2022/04/19 08:07:50;;;;;;;11.00;4.90;;;16.50;95.30;;;;;;4933810;29;20051;-79
2022/04/19 08:10:20;;;;;;;10.57;5.15;;;16.30;96.00;;;;;;4949534;28;20053;-80
2022/04/19 08:12:46;;;;;;;10.02;5.03;;;16.40;96.50;;;;;;4933289;29;20047;-79
2022/04/19 08:15:13;;;;;;;11.55;4.85;;;16.60;96.20;;;;;;4949749;29;20066;-80
2022/04/19 08:17:38;;;;;;;9.90;5.32;;;16.70;95.90;;;;;;4949616;29;20555;-79
2022/04/19 08:20:06;;;;;;;9.10;4.97;;;16.80;95.90;;;;;;4951274;29;20118;-79
2022/04/19 08:22:32;;;;;;;9.40;4.85;;;16.80;94.60;;;;;;4950456;28;20047;-77
2022/04/19 08:24:58;;;;;;;10.40;4.63;;;16.90;93.80;;;;;;4948720;29;20047;-77
2022/04/19 08:27:23;;;;;;;10.18;4.05;;;16.80;93.50;;;;;;4950458;28;20049;-78
2022/04/19 08:29:49;;;;;;;8.50;4.28;;;16.80;93.80;;;;;;4951577;29;20462;-79
2022/04/19 08:32:16;;;;;;;10.48;3.83;;;16.90;93.40;;;;;;4933636;29;20051;-78
2022/04/19 08:34:42;;;;;;;8.48;3.70;;;17.00;92.10;;;;;;4932277;28;20082;-78
2022/04/19 08:37:09;;;;;;;8.07;3.50;;;17.00;91.50;;;;;;4950834;29;20043;-78
2022/04/19 08:39:36;;;;;;;7.10;3.50;;;17.00;91.30;;;;;;4937378;29;20050;-77
2022/04/19 08:42:04;;;;;;;6.50;3.03;;;16.90;92.00;;;;;;4952355;28;20054;-76
2022/04/19 08:44:30;;;;;;;8.15;3.17;;;17.00;91.00;;;;;;4943476;28;20039;-79
2022/04/19 08:46:57;;;;;;;12.65;3.65;;;17.00;91.20;;;;;;4965022;28;20098;-76
2022/04/19 08:49:25;;;;;;;6.85;2.92;;;17.10;87.70;;;;;;4952856;29;20089;-76
2022/04/19 08:51:50;;;;;;;6.60;3.17;;;17.00;90.00;;;;;;4960435;29;20522;-81
2022/04/19 08:59:47;;;;;;;6.57;2.80;;;17.30;89.00;;;;;;4974726;28;20067;-79
2022/04/19 09:02:24;;;;;;;6.57;3.13;;;17.50;85.10;;;;;;4956838;28;20039;-82
2022/04/19 09:04:52;;;;;;;9.30;3.50;;;17.50;85.20;;;;;;4949780;29;20172;-82
2022/04/19 09:07:18;;;;;;;6.45;2.72;;;17.40;83.70;;;;;;4948770;29;20153;-81
2022/04/19 09:10:00;;;;;;;5.72;2.50;;;17.30;82.40;;;;;;4949369;28;20643;-82
2022/04/19 09:12:27;;;;;;;4.68;1.77;;;17.30;82.20;;;;;;4969270;28;20046;-81
2022/04/19 09:15:03;;;;;;;5.25;1.92;;;17.50;81.50;;;;;;4966037;28;20133;-80
2022/04/19 09:17:34;;;;;;;4.53;1.67;;;17.70;78.70;;;;;;4949575;29;20134;-80
2022/04/19 09:20:11;;;;;;;3.75;1.50;;;18.00;74.00;;;;;;4959837;28;20043;-80
2022/04/19 09:22:37;;;;;;;3.67;1.33;;;17.90;74.90;;;;;;4932757;29;20091;-83
2022/04/19 09:25:27;;;;;;;3.50;1.13;;;18.00;74.40;;;;;;4950232;28;20482;-80
2022/04/19 09:27:57;;;;;;;5.15;1.45;;;18.00;74.70;;;;;;4950086;28;20046;-82
2022/04/19 09:30:28;;;;;;;3.58;1.30;;;18.10;68.80;;;;;;4954300;28;20054;-82
2022/04/19 09:33:10;;;;;;;3.25;1.10;;;18.00;70.40;;;;;;4959016;28;20664;-81
2022/04/19 09:35:48;;;;;;;1.77;1.00;;;18.00;70.70;;;;;;4932561;29;20054;-83
2022/04/19 09:38:15;;;;;;;5.07;1.08;;;18.10;69.40;;;;;;4950672;28;20468;-81
2022/04/19 09:40:48;;;;;;;4.85;1.60;;;18.10;70.80;;;;;;4948958;28;20497;-82
2022/04/19 09:43:21;;;;;;;4.30;1.50;;;18.20;73.20;;;;;;4932615;29;20051;-87
2022/04/19 09:45:54;;;;;;;6.28;1.70;;;18.20;70.00;;;;;;4933297;29;20036;-81
2022/04/19 09:48:24;;;;;;;10.95;1.67;;;18.30;71.00;;;;;;4948285;29;20043;-81
2022/04/19 09:50:58;;;;;;;3.38;1.40;;;18.50;71.10;;;;;;4948782;29;20054;-81
2022/04/19 09:53:29;;;;;;;4.22;1.50;;;18.60;71.80;;;;;;4947977;29;20500;-81
2022/04/19 09:55:56;;;;;;;4.65;1.55;;;18.70;70.50;;;;;;4948632;29;20039;-81
2022/04/19 09:58:23;;;;;;;3.63;1.42;;;18.70;70.60;;;;;;4947758;29;20139;-81
2022/04/19 10:00:49;;;;;;;5.05;1.70;;;18.70;70.30;;;;;;4949837;28;20047;-82
2022/04/19 10:08:52;;;;;;;5.55;1.85;;;18.60;69.00;;;;;;4947860;29;20051;-80
2022/04/19 10:11:21;;;;;;;4.70;1.50;;;18.50;69.60;;;;;;4947627;28;20047;-80
2022/04/19 10:13:47;;;;;;;4.80;1.80;;;18.40;68.00;;;;;;4932307;29;20051;-80
2022/04/19 10:16:16;;;;;;;4.80;1.70;;;18.40;68.90;;;;;;4932485;29;20400;-80
2022/04/19 10:18:44;;;;;;;4.90;1.90;;;18.40;70.30;;;;;;4936323;29;20054;-81
2022/04/19 10:21:15;;;;;;;7.07;2.25;;;18.40;70.90;;;;;;4950303;28;20043;-83
2022/04/19 10:23:41;;;;;;;4.28;1.73;;;18.40;70.50;;;;;;4947353;29;20047;-80
2022/04/19 10:26:23;;;;;;;5.20;1.70;;;18.50;72.10;;;;;;4952268;28;20055;-82
2022/04/19 10:28:54;;;;;;;5.60;1.83;;;18.50;71.10;;;;;;4952670;29;20451;-79
2022/04/19 10:31:28;;;;;;;;;;;18.40;70.90;;;;;;4953116;29;20403;-75
2022/04/19 10:33:54;;;;;;;5.22;1.45;;;18.40;73.40;;;;;;4935843;29;19927;-81
2022/04/19 10:36:21;;;;;;;4.35;1.70;;;18.50;71.80;;;;;;4952619;29;20131;-83
2022/04/19 10:39:13;;;;;;;3.97;1.60;;;18.40;70.70;;;;;;4951306;29;20051;-82
2022/04/19 10:41:48;;;;;;;4.28;1.80;;;18.40;71.30;;;;;;4950083;29;20043;-80
2022/04/19 10:44:30;;;;;;;5.82;1.60;;;18.30;70.00;;;;;;4981511;28;20090;-83
2022/04/19 10:47:05;;;;;;;6.15;1.80;;;18.30;70.00;;;;;;4952406;29;20103;-85
2022/04/19 10:49:30;;;;;;;6.15;2.10;;;18.20;70.30;;;;;;4963890;28;20043;-84
2022/04/19 10:52:00;;;;;;;5.75;2.20;;;18.30;71.40;;;;;;4936167;29;20203;-80
2022/04/19 10:55:01;;;;;;;7.63;1.80;;;18.20;71.00;;;;;;4952176;28;20039;-82
2022/04/19 11:00:52;;;;;;;3.95;1.88;;;18.30;71.70;;;;;;4966533;28;20416;-81
2022/04/19 11:03:26;;;;;;;5.43;1.95;;;18.50;72.10;;;;;;4969623;28;20645;-85
2022/04/19 11:05:57;;;;;;;6.13;1.92;;;18.60;71.20;;;;;;4970143;28;20146;-86
2022/04/19 11:08:25;;;;;;;4.90;1.80;;;18.70;70.30;;;;;;4950549;29;20073;-87
2022/04/19 11:11:21;;;;;;;4.53;1.90;;;18.60;68.20;;;;;;4970586;28;20047;-83
2022/04/19 11:14:18;;;;;;;4.20;1.65;;;18.60;70.10;;;;;;4952122;29;20501;-81
2022/04/19 11:16:44;;;;;;;6.18;2.00;;;18.60;70.60;;;;;;4933471;28;20051;-82
2022/04/19 11:19:18;;;;;;;3.65;1.75;;;18.60;71.50;;;;;;4932351;29;20183;-78
2022/04/19 11:21:55;;;;;;;6.13;2.00;;;18.70;71.10;;;;;;4953436;28;20051;-79
2022/04/19 11:24:59;;;;;;;9.13;2.20;;;18.70;71.50;;;;;;4999077;28;20053;-79
2022/04/19 11:27:53;;;;;;;5.78;2.40;;;18.70;72.20;;;;;;4995007;28;20051;-80
2022/04/19 11:30:23;;;;;;;6.70;2.30;;;18.70;71.80;;;;;;4942446;28;20055;-83
2022/04/19 11:32:52;;;;;;;5.72;2.00;;;18.80;71.00;;;;;;4954531;28;20050;-79
2022/04/19 11:35:18;;;;;;;5.57;2.10;;;18.80;71.50;;;;;;4951416;29;20047;-80
2022/04/19 11:37:44;;;;;;;4.57;2.03;;;18.70;69.10;;;;;;4952853;28;20097;-81
2022/04/19 11:48:45;;;;;;;5.65;2.10;;;18.80;69.90;;;;;;4950898;28;20043;-81
2022/04/19 11:51:13;;;;;;;4.90;2.15;;;18.70;70.30;;;;;;4949956;29;20385;-79
2022/04/19 11:53:39;;;;;;;5.13;2.10;;;18.60;71.40;;;;;;4933877;29;20113;-82
2022/04/19 11:56:06;;;;;;;5.55;2.42;;;18.60;70.70;;;;;;4933850;29;20042;-82
2022/04/19 11:58:33;;;;;;;5.03;2.15;;;18.60;71.50;;;;;;4948900;29;20055;-81
2022/04/19 12:01:04;;;;;;;4.32;2.00;;;18.60;71.50;;;;;;4982162;28;20042;-81
2022/04/19 12:03:36;;;;;;;4.38;1.88;;;18.70;71.80;;;;;;4950521;28;20535;-81
2022/04/19 12:06:09;;;;;;;4.50;1.73;;;18.80;71.00;;;;;;4940159;29;20050;-80
2022/04/19 12:08:37;;;;;;;5.93;1.90;;;18.80;71.10;;;;;;4948923;28;20043;-82
2022/04/19 12:11:04;;;;;;;7.15;2.05;;;18.80;68.90;;;;;;4960295;28;20058;-81
2022/04/19 12:13:30;;;;;;;5.70;2.10;;;18.80;71.30;;;;;;4969827;28;20043;-79
2022/04/19 12:15:56;;;;;;;5.07;1.80;;;18.70;71.10;;;;;;4968698;28;20038;-78
2022/04/19 12:18:33;;;;;;;5.45;2.28;;;18.80;72.10;;;;;;4968896;28;20091;-83
2022/04/19 12:20:59;;;;;;;5.13;2.38;;;18.90;71.20;;;;;;4936422;28;20574;-87
2022/04/19 12:23:25;;;;;;;7.55;2.40;;;18.80;70.70;;;;;;4953754;28;20054;-87
2022/04/19 12:26:03;;;;;;;6.20;2.10;;;18.90;71.40;;;;;;4953644;28;20508;-82
2022/04/19 12:28:43;;;;;;;8.02;2.10;;;18.80;71.00;;;;;;4970343;28;20455;-85
2022/04/19 12:31:32;;;;;;;4.93;2.25;;;18.70;70.00;;;;;;4971337;28;20109;-81
2022/04/19 12:33:59;;;;;;;5.63;2.20;;;18.60;68.80;;;;;;4953908;28;20051;-83
2022/04/19 12:36:26;;;;;;;6.05;2.13;;;18.50;69.70;;;;;;4985415;28;20112;-87
2022/04/19 12:39:00;;;;;;;4.22;1.80;;;18.50;70.70;;;;;;4953309;28;20173;-83
2022/04/19 12:41:46;;;;;;;6.47;2.63;;;18.60;70.90;;;;;;4970680;28;20085;-85
2022/04/19 12:44:15;;;;;;;5.47;2.40;;;18.50;70.60;;;;;;4953569;28;20051;-82
2022/04/19 12:46:44;;;;;;;7.47;2.30;;;18.40;70.40;;;;;;4952482;28;20110;-81
2022/04/19 12:49:29;;;;;;;5.63;2.38;;;18.40;70.90;;;;;;4941485;28;20058;-80
2022/04/19 12:52:05;;;;;;;6.70;2.20;;;18.40;69.90;;;;;;4933175;28;20054;-81
2022/04/19 12:54:35;;;;;;;4.93;1.98;;;18.40;70.40;;;;;;4960567;28;20097;-85
2022/04/19 12:57:01;;;;;;;3.78;1.40;;;18.30;71.30;;;;;;4969128;28;20086;-83
2022/04/19 12:59:32;;;;;;;4.55;1.75;;;18.50;69.30;;;;;;4947423;29;20709;-86
2022/04/19 13:01:58;;;;;;;3.63;1.70;;;18.40;69.70;;;;;;4965553;28;20087;-82
2022/04/19 13:04:24;;;;;;;5.75;2.17;;;18.50;71.80;;;;;;4968005;28;20061;-78
2022/04/19 13:12:28;;;;;;;4.57;2.03;;;18.70;71.90;;;;;;4951803;28;20058;-84
2022/04/19 13:14:58;;;;;;;4.72;1.95;;;18.70;71.40;;;;;;4954677;28;20039;-83
2022/04/19 13:17:28;;;;;;;4.22;2.03;;;18.50;70.70;;;;;;4939232;28;20042;-81
2022/04/19 13:19:54;;;;;;;4.50;1.98;;;18.60;71.30;;;;;;4954695;28;20051;-84
2022/04/19 13:22:19;;;;;;;4.75;2.10;;;18.80;71.80;;;;;;4937300;28;20153;-83
2022/04/19 13:24:45;;;;;;;5.35;2.25;;;18.50;69.20;;;;;;4949895;28;20551;-83
2022/04/19 13:27:11;;;;;;;4.65;1.80;;;18.50;71.00;;;;;;4951917;28;20055;-89
2022/04/19 13:29:42;;;;;;;8.00;2.38;;;18.40;70.40;;;;;;4953364;28;20082;-86
2022/04/19 13:32:09;;;;;;;5.60;2.55;;;18.30;70.90;;;;;;4933231;28;20164;-84
2022/04/19 13:34:35;;;;;;;4.07;2.10;;;18.30;69.60;;;;;;4966762;28;20559;-88
2022/04/19 13:37:02;;;;;;;5.85;2.38;;;18.10;70.30;;;;;;4970552;28;20054;-78
2022/04/19 13:39:28;;;;;;;4.93;2.08;;;18.20;70.40;;;;;;4953457;28;20091;-78
2022/04/19 13:41:54;;;;;;;4.35;2.10;;;18.10;70.20;;;;;;4956085;28;20047;-77